McKean County Weather on FaceBook
Current Metar reports for airports in our Region

Nearby METAR Reports

Metar reports(Meteorological Terminal Aviation Routine) are mainly used by pilots for information on what is happening at their destination during their pre-flight weather briefings and by meteorologists to assist in short term forecasts. A raw Metar is one of the most universal ways to communicate weather information in the world and are usually transmitted by airports, but some come from permanent sanctioned weather observatories.

Listed below are Metars from airports within 100 miles of our station here in Smethport Pa. The first one of course is the Bradford Regional Airport, then the Olean NY airport and so on. Each airport has it's own table to display it's data and at the bottom of the table is 'Raw' Metar for each airport. Most pilots and weather forecasters can look at the raw data and tell you what is up, but we use a script that handles all of the details for us.

KBFD - Bradford, Pennsylvania, USA
Distance from station: NW 7mi, 11km
Updated: Sun, 26-Sep-2021 5:53pm EDT
Overcast
Overcast
 Wind from varies
Wind: varies 7 mph , 11 km/h
Temperature: 63°F , 17°C
Dew Point: 41°F , 5°C
Humidity: 45%
Barometer: 29.98 inHg , 1015.2 hPa
Clouds: Overcast
Visibility: 10 miles , 16 km
Cloud details: Overcast 8500 ft
2021/09/26 21:53 KBFD 262153Z AUTO VRB06KT 10SM OVC085 17/05 A2998 RMK AO2 SLP148 T01670050
KOLE - Olean, New York, USA
Distance from station: NNE 37mi, 59km
Updated: Sun, 26-Sep-2021 6:15pm EDT
Overcast
Overcast
 Wind from SW
Wind: SW 5 mph , 7 km/h, Gust: 18 mph , 30 km/h
Temperature: 55°F , 13°C
Dew Point: 41°F , 5°C
Humidity: 59%
Barometer: 29.95 inHg , 1014.2 hPa
Clouds: Overcast
Visibility: 10 miles , 16 km
Cloud details: Overcast 7500 ft
2021/09/26 22:15 KOLE 262215Z AUTO 23004G16KT 10SM OVC075 13/05 A2995 RMK AO2
 
KELZ - Wellsville, New York, USA
Distance from station: NE 40mi, 64km
Updated: Sun, 26-Sep-2021 5:56pm EDT
Partly Cloudy
Partly Cloudy
 Wind from W
Wind: W 9 mph , 15 km/h
Temperature: 59°F , 15°C
Dew Point: 43°F , 6°C
Humidity: 55%
Barometer: 29.96 inHg , 1014.6 hPa
Clouds: Partly Cloudy
Visibility: 10 miles , 16 km
Cloud details: Few Clouds 7500 ft
Partly Cloudy 12000 ft
2021/09/26 21:56 KELZ 262156Z AUTO 27008KT 10SM FEW075 SCT120 15/06 A2996 RMK AO2 SLP146 T01500056
KDUJ - Du Bois, Pennsylvania, USA
Distance from station: SSW 42mi, 68km
Updated: Sun, 26-Sep-2021 5:53pm EDT
Overcast
Overcast
 Wind from W
Wind: W 7 mph , 11 km/h
Temperature: 64°F , 18°C
Dew Point: 43°F , 6°C
Humidity: 46%
Barometer: 29.98 inHg , 1015.2 hPa
Clouds: Overcast
Visibility: 10 miles , 16 km
Cloud details: Mostly Cloudy 9500 ft
Overcast 12000 ft
2021/09/26 21:53 KDUJ 262153Z AUTO 27006KT 10SM BKN095 OVC120 18/06 A2998 RMK AO2 SLP150 T01830061 $
 
KJHW - Jamestown, New York, USA
Distance from station: NW 46mi, 75km
Updated: Sun, 26-Sep-2021 5:56pm EDT
Overcast
Overcast
 Wind from W
Wind: W 12 mph , 19 km/h
Temperature: 59°F , 15°C
Dew Point: 48°F , 9°C
Humidity: 68%
Barometer: 29.97 inHg , 1014.9 hPa
Clouds: Overcast
Visibility: 10 miles , 16 km
Cloud details: Overcast 8500 ft
2021/09/26 21:56 KJHW 262156Z AUTO 26010KT 10SM OVC085 15/09 A2997 RMK AO2 RAB08E22 SLP154 P0000 T01500089
KFIG - Clearfield, Pennsylvania, USA
Distance from station: S 47mi, 75km
Updated: Sun, 26-Sep-2021 5:54pm EDT
Overcast
Overcast
 Wind from WSW
Wind: WSW 10 mph , 17 km/h
Temperature: 66°F , 19°C
Dew Point: 43°F , 6°C
Humidity: 43%
Barometer: 29.98 inHg , 1015.2 hPa
Clouds: Overcast
Visibility: 10 miles , 16 km
Cloud details: Overcast 9500 ft
2021/09/26 21:54 KFIG 262154Z AUTO 24009KT 10SM OVC095 19/06 A2998 RMK AO2 SLP151 T01890061
 
KDKK - Dunkirk, New York, USA
Distance from station: NW 66mi, 106km
Updated: Sun, 26-Sep-2021 5:53pm EDT
Mostly Cloudy
Mostly Cloudy
 Wind from SW
Wind: SW 8 mph , 13 km/h, Gust: 17 mph , 28 km/h
Temperature: 64°F , 18°C
Dew Point: 54°F , 12°C
Humidity: 68%
Barometer: 29.93 inHg , 1013.5 hPa
Clouds: Mostly Cloudy
Visibility: 10 miles , 16 km
Cloud details: Mostly Cloudy 9000 ft
2021/09/26 21:53 KDKK 262153Z AUTO 23007G15KT 10SM BKN090 18/12 A2993 RMK AO2 SLP134 T01830117
KUNV - State College, Pennsylvania, USA
Distance from station: SSE 71mi, 114km
Updated: Sun, 26-Sep-2021 5:53pm EDT
Partly Cloudy
Partly Cloudy
 Wind from W
Wind: W 9 mph , 15 km/h, Gust: 18 mph , 30 km/h
Temperature: 66°F , 19°C
Dew Point: 43°F , 6°C
Humidity: 43%
Barometer: 29.98 inHg , 1015.2 hPa
Clouds: Partly Cloudy
Visibility: 10 miles , 16 km
Cloud details: Partly Cloudy 8500 ft
2021/09/26 21:53 KUNV 262153Z 28008G16KT 10SM SCT085 19/06 A2998
 
KFKL - Franklin, Pennsylvania, USA
Distance from station: WSW 72mi, 116km
Updated: Sun, 26-Sep-2021 5:56pm EDT
Overcast
Overcast
 Wind from SW
Wind: SW 5 mph , 7 km/h
Temperature: 66°F , 19°C
Dew Point: 48°F , 9°C
Humidity: 52%
Barometer: 29.98 inHg , 1015.2 hPa
Clouds: Overcast
Visibility: 10 miles , 16 km
Cloud details: Mostly Cloudy 9000 ft
Overcast 11000 ft
2021/09/26 21:56 KFKL 262156Z AUTO 23004KT 10SM BKN090 OVC110 19/09 A2998 RMK AO2 SLP154 T01890094
KDSV - Dansville, New York, USA
Distance from station: NE 73mi, 117km
Updated: Sun, 26-Sep-2021 5:54pm EDT
Overcast
Overcast
 Wind from varies
Wind: varies 3 mph , 6 km/h
Temperature: 68°F , 20°C
Dew Point: 46°F , 8°C
Humidity: 46%
Barometer: 29.91 inHg , 1012.9 hPa
Clouds: Overcast
Visibility: 10 miles , 16 km
Cloud details: Overcast 8500 ft
2021/09/26 21:54 KDSV 262154Z AUTO VRB03KT 10SM OVC085 20/08 A2991 RMK AO2 SLP137 T02000083
 
KIDI - Indiana/Stewart, Pennsylvania, USA
Distance from station: SSW 81mi, 130km
Updated: Sun, 26-Sep-2021 6:15pm EDT
Clear
Clear
 Wind from W
Wind: W 10 mph , 17 km/h
Temperature: 66°F , 19°C
Dew Point: 45°F , 7°C
Humidity: 46%
Barometer: 30.03 inHg , 1016.9 hPa
Clouds: Clear
Visibility: 10 miles , 16 km
2021/09/26 22:15 KIDI 262215Z AUTO 28009KT 10SM CLR 19/07 A3003 RMK A01
KBUF - Buffalo/Cheektow, New York, USA
Distance from station: N 84mi, 136km
Updated: Sun, 26-Sep-2021 5:54pm EDT
Mostly Cloudy
Mostly Cloudy
 Wind from WSW
Wind: WSW 15 mph , 24 km/h
Temperature: 66°F , 19°C
Dew Point: 52°F , 11°C
Humidity: 60%
Barometer: 29.89 inHg , 1012.2 hPa
Clouds: Mostly Cloudy
Visibility: 10 miles , 16 km
Cloud details: Few Clouds 4000 ft
Mostly Cloudy 8500 ft
Mostly Cloudy 12000 ft
Mostly Cloudy 19000 ft
2021/09/26 21:54 KBUF 262154Z 24013KT 10SM FEW040 BKN085 BKN120 BKN190 19/11 A2989 RMK AO2 SLP124 T01890111 $
 
KGKJ - Meadville, Pennsylvania, USA
Distance from station: W 86mi, 138km
Updated: Sun, 26-Sep-2021 5:53pm EDT
Overcast
Overcast
 Wind from SW
Wind: SW 5 mph , 7 km/h
Temperature: 64°F , 18°C
Dew Point: 45°F , 7°C
Humidity: 49%
Barometer: 29.96 inHg , 1014.6 hPa
Clouds: Overcast
Visibility: 10 miles , 16 km
Cloud details: Overcast 10000 ft
2021/09/26 21:53 KGKJ 262153Z AUTO 23004KT 10SM OVC100 18/07 A2996 RMK AO2 SLP146 T01780072
KERI - Erie, Pennsylvania, USA
Distance from station: WNW 87mi, 140km
Updated: Sun, 26-Sep-2021 5:51pm EDT
Overcast
Overcast
 Wind from SW
Wind: SW 6 mph , 9 km/h
Temperature: 66°F , 19°C
Dew Point: 52°F , 11°C
Humidity: 60%
Barometer: 29.94 inHg , 1013.9 hPa
Clouds: Overcast
Visibility: 10 miles , 16 km
Cloud details: Overcast 10000 ft
2021/09/26 21:51 KERI 262151Z 22005KT 10SM OVC100 19/11 A2994 RMK AO2 SLP138 T01890111
 
KELM - Elmira, New York, USA
Distance from station: ENE 90mi, 145km
Updated: Sun, 26-Sep-2021 5:53pm EDT
Few Clouds
Few Clouds
 Wind from W
Wind: W 9 mph , 15 km/h
Temperature: 66°F , 19°C
Dew Point: 45°F , 7°C
Humidity: 46%
Barometer: 29.90 inHg , 1012.5 hPa
Clouds: Few Clouds
Visibility: 10 miles , 16 km
Cloud details: Few Clouds 10000 ft
2021/09/26 21:53 KELM 262153Z 28008KT 10SM FEW100 19/07 A2990 RMK AO2 SLP123 T01890067
KIPT - Williamsport, Pennsylvania, USA
Distance from station: ESE 91mi, 146km
Updated: Sun, 26-Sep-2021 5:54pm EDT
Clear
Clear
 Wind from W
Wind: W 9 mph , 15 km/h
Temperature: 72°F , 22°C
Dew Point: 41°F , 5°C
Humidity: 33%
Barometer: 29.91 inHg , 1012.9 hPa
Clouds: Clear
Visibility: 10 miles , 16 km
2021/09/26 21:54 KIPT 262154Z 27008KT 10SM CLR 22/05 A2991 RMK AO2 SLP127 T02170050
 
KBTP - Butler Co., Pennsylvania, USA
Distance from station: SW 98mi, 157km
Updated: Sun, 26-Sep-2021 5:56pm EDT
Clear
Clear
 Wind from WSW
Wind: WSW 12 mph , 19 km/h
Temperature: 70°F , 21°C
Dew Point: 46°F , 8°C
Humidity: 43%
Barometer: 30.00 inHg , 1015.9 hPa
Clouds: Clear
Visibility: 10 miles , 16 km
2021/09/26 21:56 KBTP 262156Z AUTO 24010KT 10SM CLR 21/08 A3000 RMK AO2 SLP163 T02060078
KAOO - Altoona, Pennsylvania, USA
Distance from station: S 99mi, 159km
Updated: Sun, 26-Sep-2021 5:53pm EDT
Clear
Clear
 Wind from W
Wind: W 10 mph , 17 km/h, Gust: 21 mph , 33 km/h
Temperature: 68°F , 20°C
Dew Point: 39°F , 4°C
Humidity: 35%
Barometer: 30.00 inHg , 1015.9 hPa
Clouds: Clear
Visibility: 10 miles , 16 km
2021/09/26 21:53 KAOO 262153Z AUTO 28009G18KT 10SM CLR 20/04 A3000 RMK AO2 SLP158 T02000044
 
KPIT - Pittsburg, Pennsylvania, USA
Distance from station: SSW 126mi, 203km
Updated: Sun, 26-Sep-2021 5:51pm EDT
Few Clouds
Few Clouds
 Wind from WSW
Wind: WSW 9 mph , 15 km/h
Temperature: 70°F , 21°C
Dew Point: 45°F , 7°C
Humidity: 40%
Barometer: 30.01 inHg , 1016.3 hPa
Clouds: Few Clouds
Visibility: 10 miles , 16 km
Cloud details: Few Clouds 12000 ft
Few Clouds 25000 ft
2021/09/26 21:51 KPIT 262151Z 24008KT 10SM FEW120 FEW250 21/07 A3001 RMK AO2 SLP166 T02110067
KCLE - Cleveland, Ohio, USA
Distance from station: WSW 160mi, 258km
Updated: Sun, 26-Sep-2021 5:51pm EDT
Mostly Cloudy
Mostly Cloudy
 Wind from SW
Wind: SW 10 mph , 17 km/h
Temperature: 73°F , 23°C
Dew Point: 46°F , 8°C
Humidity: 38%
Barometer: 29.92 inHg , 1013.2 hPa
Clouds: Mostly Cloudy
Visibility: 10 miles , 16 km
Cloud details: Partly Cloudy 9500 ft
Mostly Cloudy 12000 ft
2021/09/26 21:51 KCLE 262151Z 23009KT 10SM SCT095 BKN120 23/08 A2992 RMK AO2 SLP145 T02330083